Time;durP1;ratioP1;P1;durP2;ratioP2;P2;SDS_P1;SDS_P2;PMS_P1;PMS_P2;Temp;Humidity;BMP_temperature;BMP_pressure;BME280_temperature;BME280_humidity;BME280_pressure;Samples;Min_cycle;Max_cycle;Signal;HPM_P1;HPM_P2
2023/02/04 00:02:26;;;;;;;;;;;;;;;0.01;87.37;101575.17;107186;1254;124598;-86
2023/02/04 00:04:58;;;;;;;;;;;;;;;0.03;87.26;101581.23;107228;1257;71688;-87
2023/02/04 00:07:24;;;;;;;;;;;;;;;0.06;87.32;101587.15;107256;1257;124594;-83
2023/02/04 00:09:50;;;;;;;;;;;;;;;0.09;87.16;101591.67;107494;1257;61201;-83
2023/02/04 00:12:19;;;;;;;;;;;;;;;0.12;86.96;101601.08;107466;1259;61356;-83
2023/02/04 00:14:45;;;;;;;;;;;;;;;0.14;86.74;101602.61;107494;1260;125210;-85
2023/02/04 00:17:11;;;;;;;;;;;;;;;0.17;86.61;101609.08;107732;1254;61233;-86
2023/02/04 00:19:39;;;;;;;;;;;;;;;0.19;86.66;101619.29;108918;1257;124603;-87
2023/02/04 00:22:10;;;;;;;;;;;;;;;0.22;86.60;101625.37;107756;1261;61122;-83
2023/02/04 00:24:36;;;;;;;;;;;;;;;0.24;86.45;101632.94;107013;1257;124729;-82
2023/02/04 00:27:03;;;;;;;;;;;;;;;0.27;86.44;101633.69;107576;1260;66916;-83
2023/02/04 00:29:29;;;;;;;;;;;;;;;0.30;86.43;101638.10;107765;1256;71022;-82
2023/02/04 00:31:56;;;;;;;;;;;;;;;0.32;86.61;101648.14;107565;1255;125191;-81
2023/02/04 00:34:22;;;;;;;;;;;;;;;0.35;86.44;101659.21;107217;1259;61122;-86
2023/02/04 00:36:52;;;;;;;;;;;;;;;0.40;86.35;101673.41;106971;1257;124814;-87
2023/02/04 00:39:18;;;;;;;;;;;;;;;0.45;86.43;101677.83;107405;1257;67497;-82
2023/02/04 00:41:44;;;;;;;;;;;;;;;0.48;86.33;101682.67;107811;1256;61176;-82
2023/02/04 00:44:12;;;;;;;;;;;;;;;0.51;86.21;101683.60;107313;1257;125245;-81
2023/02/04 00:46:39;;;;;;;;;;;;;;;0.54;86.19;101699.74;107391;1256;61119;-82
2023/02/04 00:49:09;;;;;;;;;;;;;;;0.57;86.17;101704.18;107414;1257;124553;-82
2023/02/04 00:51:45;;;;;;;;;;;;;;;0.60;86.03;101711.10;107469;1257;66889;-81
2023/02/04 00:54:17;;;;;;;;;;;;;;;0.61;86.23;101725.34;107269;1259;71479;-86
2023/02/04 00:56:45;;;;;;;;;;;;;;;0.61;85.83;101733.81;106981;1256;124799;-86
2023/02/04 00:59:12;;;;;;;;;;;;;;;0.61;85.65;101730.33;107181;1257;61241;-82
2023/02/04 01:01:43;;;;;;;;;;;;;;;0.54;85.52;101738.48;107057;1261;124850;-86
2023/02/04 01:04:14;;;;;;;;;;;;;;;0.43;85.30;101749.27;107109;1257;67023;-86
2023/02/04 01:06:40;;;;;;;;;;;;;;;0.32;84.99;101755.85;107128;1261;124741;-83
2023/02/04 01:09:07;;;;;;;;;;;;;;;0.23;84.51;101763.56;107248;1257;61317;-83
2023/02/04 01:11:35;;;;;;;;;;;;;;;0.12;84.27;101776.15;107269;1258;60037;-83
2023/02/04 01:14:04;;;;;;;;;;;;;;;0.04;84.17;101783.20;107320;1253;123920;-86
2023/02/04 01:16:30;;;;;;;;;;;;;;;-0.04;83.64;101789.95;107454;1256;66993;-83
2023/02/04 01:18:57;;;;;;;;;;;;;;;-0.10;83.55;101795.30;107389;1257;124759;-83
2023/02/04 01:21:55;;;;;;;;;;;;;;;-0.16;83.40;101799.74;107366;1263;61058;-87
2023/02/04 01:24:23;;;;;;;;;;;;;;;-0.21;83.11;101807.73;107439;1256;124732;-81
2023/02/04 01:30:23;;;;;;;;;;;;;;;-0.31;82.48;101824.11;107128;1257;66908;-81
2023/02/04 01:32:49;;;;;;;;;;;;;;;-0.37;82.30;101830.10;107139;1261;72668;-81
2023/02/04 01:35:47;;;;;;;;;;;;;;;-0.41;82.24;101839.64;107298;1254;61292;-83
2023/02/04 01:38:14;;;;;;;;;;;;;;;-0.37;82.24;101840.41;107126;1260;124751;-85
2023/02/04 01:40:41;;;;;;;;;;;;;;;-0.32;81.98;101843.11;107464;1260;59980;-81
2023/02/04 01:43:07;;;;;;;;;;;;;;;-0.27;82.05;101854.56;107485;1260;125326;-81
2023/02/04 01:45:35;;;;;;;;;;;;;;;-0.23;81.83;101852.03;108393;1254;59299;-81
2023/02/04 01:48:04;;;;;;;;;;;;;;;-0.18;81.85;101858.25;107385;1255;61186;-85
2023/02/04 01:50:30;;;;;;;;;;;;;;;-0.15;81.54;101874.44;107282;1255;124349;-85
2023/02/04 01:52:56;;;;;;;;;;;;;;;-0.09;81.36;101876.99;107366;1260;61444;-85
2023/02/04 01:55:25;;;;;;;;;;;;;;;-0.04;81.24;101881.02;107012;1257;125318;-87
2023/02/04 01:57:52;;;;;;;;;;;;;;;-0.03;81.16;101889.30;107354;1256;71713;-86
2023/02/04 02:00:21;;;;;;;;;;;;;;;0.00;81.25;101891.25;107418;1256;61700;-86
2023/02/04 02:02:49;;;;;;;;;;;;;;;0.03;81.05;101900.13;107245;1260;124437;-85
2023/02/04 02:05:20;;;;;;;;;;;;;;;0.06;81.07;101910.23;107256;1257;74599;-85
2023/02/04 02:07:49;;;;;;;;;;;;;;;0.11;80.79;101914.95;107191;1257;125404;-84
2023/02/04 02:10:19;;;;;;;;;;;;;;;0.15;80.87;101916.69;107261;1262;72734;-85
2023/02/04 02:12:46;;;;;;;;;;;;;;;0.19;80.86;101923.22;107086;1258;124099;-85
2023/02/04 02:15:13;;;;;;;;;;;;;;;0.22;80.62;101931.06;107406;1260;61108;-85
2023/02/04 02:17:39;;;;;;;;;;;;;;;0.25;80.52;101935.28;107404;1262;74780;-85
2023/02/04 02:20:08;;;;;;;;;;;;;;;0.27;80.67;101936.85;107052;1261;124457;-85
2023/02/04 02:22:58;;;;;;;;;;;;;;;0.30;80.23;101941.24;107278;1254;73099;-85
2023/02/04 02:25:27;;;;;;;;;;;;;;;0.34;80.11;101933.46;107185;1254;124611;-85
2023/02/04 02:27:53;;;;;;;;;;;;;;;0.37;79.90;101941.85;107259;1259;61225;-86
2023/02/04 02:30:19;;;;;;;;;;;;;;;0.40;79.77;101945.17;107310;1263;75300;-85
2023/02/04 02:32:47;;;;;;;;;;;;;;;0.41;79.56;101947.52;107279;1260;123623;-85
2023/02/04 02:35:18;;;;;;;;;;;;;;;0.42;79.48;101946.62;107544;1254;72792;-86
2023/02/04 02:37:44;;;;;;;;;;;;;;;0.44;79.53;101948.64;107234;1256;123685;-85
2023/02/04 02:40:11;;;;;;;;;;;;;;;0.46;79.42;101955.16;107470;1259;61169;-85
2023/02/04 02:42:37;;;;;;;;;;;;;;;0.47;79.44;101964.98;107223;1262;123938;-85
2023/02/04 02:45:05;;;;;;;;;;;;;;;0.47;79.10;101979.64;107451;1259;66449;-82
2023/02/04 02:47:36;;;;;;;;;;;;;;;0.46;79.12;101984.95;107304;1260;72555;-88
2023/02/04 02:50:02;;;;;;;;;;;;;;;0.47;79.15;101994.30;107159;1255;124432;-87
2023/02/04 02:52:29;;;;;;;;;;;;;;;0.49;79.03;102012.27;107250;1257;60048;-88
2023/02/04 02:54:56;;;;;;;;;;;;;;;0.49;80.56;102044.41;107104;1256;125107;-88
2023/02/04 02:57:22;;;;;;;;;;;;;;;0.38;90.79;102052.25;107131;1261;67105;-83
2023/02/04 02:59:48;;;;;;;;;;;;;;;0.21;93.55;102063.02;107161;1259;61173;-83
2023/02/04 03:02:17;;;;;;;;;;;;;;;-0.01;93.63;102077.48;107207;1260;125345;-82
2023/02/04 03:04:44;;;;;;;;;;;;;;;-0.26;92.62;102066.00;107265;1256;61192;-83
2023/02/04 03:07:12;;;;;;;;;;;;;;;-0.40;92.39;102068.91;107066;1260;124792;-84
2023/02/04 03:09:39;;;;;;;;;;;;;;;-0.49;92.68;102060.14;107212;1260;66959;-83
2023/02/04 03:12:08;;;;;;;;;;;;;;;-0.54;92.01;102062.45;107254;1263;71658;-81
2023/02/04 03:14:34;;;;;;;;;;;;;;;-0.58;91.66;102073.25;107381;1254;124628;-81
2023/02/04 03:17:00;;;;;;;;;;;;;;;-0.62;91.25;102079.77;107717;1257;61199;-81
2023/02/04 03:19:27;;;;;;;;;;;;;;;-0.63;91.00;102095.59;107019;1255;125240;-82
2023/02/04 03:21:53;;;;;;;;;;;;;;;-0.63;90.77;102100.99;107048;1256;61406;-86
2023/02/04 03:24:23;;;;;;;;;;;;;;;-0.61;90.29;102115.49;106999;1254;61359;-82
2023/02/04 03:26:50;;;;;;;;;;;;;;;-0.61;91.03;102134.41;107210;1254;61194;-82
2023/02/04 03:29:16;;;;;;;;;;;;;;;-0.67;92.80;102124.67;107195;1255;61157;-81
2023/02/04 03:31:43;;;;;;;;;;;;;;;-0.75;92.96;102121.59;107208;1257;125091;-81
2023/02/04 03:34:09;;;;;;;;;;;;;;;-0.81;92.56;102137.17;107318;1257;59296;-81
2023/02/04 03:36:35;;;;;;;;;;;;;;;-0.86;92.14;102144.11;107252;1260;125484;-81
2023/02/04 03:39:02;;;;;;;;;;;;;;;-0.90;92.44;102139.48;107735;1254;61177;-81
2023/02/04 03:41:32;;;;;;;;;;;;;;;-0.92;92.46;102136.67;107734;1255;59234;-81
2023/02/04 03:43:58;;;;;;;;;;;;;;;-0.94;92.54;102134.09;107385;1254;125003;-81
2023/02/04 03:46:24;;;;;;;;;;;;;;;-0.91;92.42;102137.98;108997;1254;59821;-81
2023/02/04 03:48:51;;;;;;;;;;;;;;;-0.88;92.33;102152.54;108949;1254;124816;-81
2023/02/04 03:51:17;;;;;;;;;;;;;;;-0.88;92.08;102158.46;108083;1258;61291;-81
2023/02/04 03:53:43;;;;;;;;;;;;;;;-0.83;91.78;102167.84;107529;1261;61291;-82
2023/02/04 03:56:09;;;;;;;;;;;;;;;-0.80;91.67;102177.95;107415;1269;124723;-81
2023/02/04 03:59:07;;;;;;;;;;;;;;;-0.79;91.33;102177.90;107533;1254;61919;-82
2023/02/04 04:01:34;;;;;;;;;;;;;;;-0.76;90.96;102179.20;107388;1254;124752;-81
2023/02/04 04:04:00;;;;;;;;;;;;;;;-0.74;90.50;102193.50;107547;1257;59342;-81
2023/02/04 04:06:26;;;;;;;;;;;;;;;-0.74;90.26;102199.61;107483;1254;125040;-81
2023/02/04 04:08:52;;;;;;;;;;;;;;;-0.72;90.01;102208.36;107596;1259;61362;-82
2023/02/04 04:11:20;;;;;;;;;;;;;;;-0.71;89.70;102204.83;107510;1254;61329;-81
2023/02/04 04:13:47;;;;;;;;;;;;;;;-0.75;89.49;102211.83;107121;1260;125033;-82
2023/02/04 04:16:13;;;;;;;;;;;;;;;-0.80;89.35;102214.85;107243;1257;61252;-81
2023/02/04 04:18:39;;;;;;;;;;;;;;;-0.86;88.87;102230.36;107457;1254;125587;-81
2023/02/04 04:21:06;;;;;;;;;;;;;;;-0.86;88.76;102233.94;107542;1259;60753;-81
2023/02/04 04:23:32;;;;;;;;;;;;;;;-0.82;88.81;102239.98;107384;1257;59557;-81
2023/02/04 04:25:58;;;;;;;;;;;;;;;-0.77;88.73;102255.64;107251;1259;125445;-82
2023/02/04 04:28:24;;;;;;;;;;;;;;;-0.71;88.73;102271.71;107336;1258;59297;-82
2023/02/04 04:30:51;;;;;;;;;;;;;;;-0.66;89.20;102292.08;107327;1257;125903;-82
2023/02/04 04:33:17;;;;;;;;;;;;;;;-0.70;93.12;102293.41;107159;1254;61157;-82
2023/02/04 04:35:44;;;;;;;;;;;;;;;-0.86;96.92;102296.85;107373;1254;61165;-83
2023/02/04 04:38:12;;;;;;;;;;;;;;;-0.96;98.79;102293.27;107262;1255;124918;-83
2023/02/04 04:40:39;;;;;;;;;;;;;;;-1.01;99.80;102292.47;107324;1261;61211;-83
2023/02/04 04:43:39;;;;;;;;;;;;;;;-1.03;99.98;102295.27;107323;1254;125527;-83
2023/02/04 04:46:05;;;;;;;;;;;;;;;-1.08;100.00;102294.52;107270;1259;73780;-83
2023/02/04 04:48:33;;;;;;;;;;;;;;;-1.14;100.00;102296.54;107379;1254;125101;-83
2023/02/04 04:51:00;;;;;;;;;;;;;;;-1.16;100.00;102300.83;107522;1254;72530;-83
2023/02/04 04:53:26;;;;;;;;;;;;;;;-1.14;100.00;102302.64;107518;1254;61304;-83
2023/02/04 04:55:52;;;;;;;;;;;;;;;-1.12;100.00;102304.15;107812;1254;124903;-83
2023/02/04 04:58:19;;;;;;;;;;;;;;;-1.11;100.00;102306.30;107247;1254;61152;-83
2023/02/04 05:00:50;;;;;;;;;;;;;;;-1.07;100.00;102312.90;107186;1254;125497;-83
2023/02/04 05:03:16;;;;;;;;;;;;;;;-1.04;100.00;102322.56;107148;1254;73602;-84
2023/02/04 05:05:43;;;;;;;;;;;;;;;-1.02;100.00;102326.69;107267;1254;61237;-83
2023/02/04 05:08:12;;;;;;;;;;;;;;;-0.99;100.00;102336.41;107267;1254;125097;-83
2023/02/04 05:10:41;;;;;;;;;;;;;;;-0.97;100.00;102339.23;107077;1254;74940;-83
2023/02/04 05:13:08;;;;;;;;;;;;;;;-0.93;100.00;102333.91;107138;1254;124950;-83
2023/02/04 05:15:36;;;;;;;;;;;;;;;-0.86;100.00;102351.85;107488;1254;61256;-83
2023/02/04 05:18:07;;;;;;;;;;;;;;;-0.81;100.00;102361.85;107349;1254;61323;-82
2023/02/04 05:20:33;;;;;;;;;;;;;;;-0.81;100.00;102376.33;107088;1257;125401;-83
2023/02/04 05:23:00;;;;;;;;;;;;;;;-0.88;100.00;102369.71;107176;1254;61372;-83
2023/02/04 05:25:27;;;;;;;;;;;;;;;-0.99;100.00;102366.42;107315;1254;125428;-84
2023/02/04 05:27:53;;;;;;;;;;;;;;;-1.08;100.00;102375.71;107359;1254;72731;-86
2023/02/04 05:30:20;;;;;;;;;;;;;;;-1.15;100.00;102381.24;107116;1254;61203;-86
2023/02/04 05:33:32;;;;;;;;;;;;;;;-1.21;100.00;102381.05;107048;1254;124647;-87
2023/02/04 05:35:59;;;;;;;;;;;;;;;-1.25;100.00;102383.02;106976;1254;73121;-86
2023/02/04 05:38:29;;;;;;;;;;;;;;;-1.26;100.00;102388.41;107055;1254;125638;-86
2023/02/04 05:40:55;;;;;;;;;;;;;;;-1.24;100.00;102384.98;107210;1254;73163;-85
2023/02/04 05:43:22;;;;;;;;;;;;;;;-1.24;100.00;102390.23;107033;1259;124798;-86
2023/02/04 05:45:50;;;;;;;;;;;;;;;-1.23;100.00;102392.75;107258;1260;61168;-85
2023/02/04 05:48:18;;;;;;;;;;;;;;;-1.16;100.00;102390.08;107285;1254;73041;-85
2023/02/04 05:50:44;;;;;;;;;;;;;;;-1.07;100.00;102401.30;107298;1254;124871;-89
2023/02/04 05:53:12;;;;;;;;;;;;;;;-0.99;100.00;102409.33;107383;1257;61256;-86
2023/02/04 05:55:42;;;;;;;;;;;;;;;-0.96;100.00;102410.60;106890;1254;124854;-87
2023/02/04 05:58:08;;;;;;;;;;;;;;;-0.95;100.00;102421.04;107103;1260;61126;-87
2023/02/04 06:00:34;;;;;;;;;;;;;;;-0.97;100.00;102420.55;107096;1257;124952;-86
2023/02/04 06:03:02;;;;;;;;;;;;;;;-0.95;100.00;102429.48;107298;1258;61189;-86
2023/02/04 06:05:29;;;;;;;;;;;;;;;-0.93;100.00;102432.28;107421;1254;71088;-87
2023/02/04 06:07:55;;;;;;;;;;;;;;;-0.91;100.00;102432.13;106940;1257;126326;-86
2023/02/04 06:10:21;;;;;;;;;;;;;;;-0.92;100.00;102434.17;107034;1260;59279;-87
2023/02/04 06:13:21;;;;;;;;;;;;;;;-0.94;100.00;102425.35;107042;1256;125770;-89
2023/02/04 06:15:49;;;;;;;;;;;;;;;-0.96;100.00;102432.04;107334;1254;65940;-87
2023/02/04 06:18:21;;;;;;;;;;;;;;;-0.94;100.00;102432.89;107459;1260;72689;-86
2023/02/04 06:20:47;;;;;;;;;;;;;;;-0.93;100.00;102427.28;107284;1254;126810;-86
2023/02/04 06:23:14;;;;;;;;;;;;;;;-0.95;100.00;102440.92;107314;1254;61230;-87
2023/02/04 06:25:41;;;;;;;;;;;;;;;-1.01;100.00;102443.32;106973;1254;125081;-87
2023/02/04 06:28:07;;;;;;;;;;;;;;;-1.03;100.00;102445.85;107328;1254;66758;-87
2023/02/04 06:30:36;;;;;;;;;;;;;;;-1.06;100.00;102449.35;107058;1255;124986;-87
2023/02/04 06:33:02;;;;;;;;;;;;;;;-1.09;100.00;102451.02;107443;1254;61246;-86
2023/02/04 06:35:30;;;;;;;;;;;;;;;-1.13;100.00;102450.69;107320;1255;61266;-82
2023/02/04 06:37:57;;;;;;;;;;;;;;;-1.16;99.97;102454.03;107275;1257;124973;-83
2023/02/04 06:40:23;;;;;;;;;;;;;;;-1.18;99.89;102456.29;107312;1257;67149;-83
2023/02/04 06:42:49;;;;;;;;;;;;;;;-1.21;99.74;102458.46;107113;1257;124814;-83
2023/02/04 06:45:17;;;;;;;;;;;;;;;-1.25;99.40;102458.95;107252;1257;61272;-89
2023/02/04 06:47:43;;;;;;;;;;;;;;;-1.29;99.00;102462.02;107333;1256;61225;-88
2023/02/04 06:50:11;;;;;;;;;;;;;;;-1.32;98.65;102469.45;107281;1254;124632;-82
2023/02/04 06:52:37;;;;;;;;;;;;;;;-1.34;98.33;102474.05;107568;1256;66105;-82
2023/02/04 06:55:03;;;;;;;;;;;;;;;-1.34;97.91;102477.17;107366;1254;125511;-82
2023/02/04 06:57:30;;;;;;;;;;;;;;;-1.31;97.66;102478.03;107874;1254;61464;-81
2023/02/04 06:59:56;;;;;;;;;;;;;;;-1.24;97.34;102480.89;107940;1257;59550;-81
2023/02/04 07:02:22;;;;;;;;;;;;;;;-1.17;97.13;102482.55;107458;1256;125234;-86
2023/02/04 07:04:49;;;;;;;;;;;;;;;-1.11;96.77;102484.30;107370;1254;61543;-86
2023/02/04 07:07:15;;;;;;;;;;;;;;;-1.07;96.59;102486.09;107035;1258;125227;-87
2023/02/04 07:09:42;;;;;;;;;;;;;;;-1.03;96.27;102488.35;107179;1257;61392;-89
2023/02/04 07:12:46;;;;;;;;;;;;;;;-0.95;96.09;102490.40;107264;1256;61263;-89
2023/02/04 07:15:13;;;;;;;;;;;;;;;-0.82;95.43;102502.49;107204;1254;75080;-86
2023/02/04 07:17:39;;;;;;;;;;;;;;;-0.73;95.15;102510.10;107480;1256;63472;-89
2023/02/04 07:20:37;;;;;;;;;;;;;;;-0.66;94.71;102509.88;107492;1253;124884;-86
2023/02/04 07:23:04;;;;;;;;;;;;;;;-0.65;94.11;102512.91;107206;1254;61332;-89
2023/02/04 07:25:30;;;;;;;;;;;;;;;-0.69;93.61;102522.05;107238;1254;124617;-90
2023/02/04 07:28:04;;;;;;;;;;;;;;;-0.73;93.07;102522.50;107190;1255;61285;-86
2023/02/04 07:30:33;;;;;;;;;;;;;;;-0.75;92.68;102522.85;107375;1257;65868;-83
2023/02/04 07:33:09;;;;;;;;;;;;;;;-0.64;92.83;102530.84;107276;1254;73157;-92
2023/02/04 07:35:41;;;;;;;;;;;;;;;-0.53;92.05;102537.10;107439;1256;61308;-90
2023/02/04 07:38:07;;;;;;;;;;;;;;;-0.52;91.50;102539.59;107358;1254;124593;-90
2023/02/04 07:40:34;;;;;;;;;;;;;;;-0.54;91.08;102543.18;107097;1261;61302;-90
2023/02/04 07:43:00;;;;;;;;;;;;;;;-0.57;90.84;102547.55;107080;1254;124803;-91
2023/02/04 07:45:26;;;;;;;;;;;;;;;-0.58;90.58;102553.48;107249;1256;61241;-90
2023/02/04 07:47:55;;;;;;;;;;;;;;;-0.57;90.24;102559.06;107186;1260;59917;-88
2023/02/04 07:50:22;;;;;;;;;;;;;;;-0.55;89.87;102552.57;107324;1254;124657;-88
2023/02/04 07:52:49;;;;;;;;;;;;;;;-0.50;90.02;102553.23;107468;1259;75339;-89
2023/02/04 07:55:17;;;;;;;;;;;;;;;-0.42;89.70;102547.98;107610;1254;124934;-88
2023/02/04 07:57:47;;;;;;;;;;;;;;;-0.24;89.69;102553.88;107489;1256;73055;-88
2023/02/04 08:00:14;;;;;;;;;;;;;;;-0.00;89.27;102560.63;107407;1256;61391;-88
2023/02/04 08:02:40;;;;;;;;;;;;;;;0.16;89.32;102569.80;107426;1254;124751;-89
2023/02/04 08:05:08;;;;;;;;;;;;;;;0.26;88.67;102572.27;107151;1260;61270;-88
2023/02/04 08:07:36;;;;;;;;;;;;;;;0.30;88.00;102567.70;107153;1258;125105;-90
2023/02/04 08:10:03;;;;;;;;;;;;;;;0.40;87.50;102573.33;107430;1254;72719;-90
2023/02/04 08:12:29;;;;;;;;;;;;;;;0.65;87.66;102587.39;107322;1254;61461;-88
2023/02/04 08:14:56;;;;;;;;;;;;;;;0.86;87.82;102604.60;107308;1256;123669;-89
2023/02/04 08:17:22;;;;;;;;;;;;;;;0.89;87.39;102619.70;107220;1254;59854;-90
2023/02/04 08:19:48;;;;;;;;;;;;;;;0.72;86.75;102637.29;107157;1254;124075;-87
2023/02/04 08:22:17;;;;;;;;;;;;;;;0.40;87.92;102642.89;107093;1254;61378;-88
2023/02/04 08:24:43;;;;;;;;;;;;;;;0.18;91.09;102634.23;107269;1254;124842;-85
2023/02/04 08:27:09;;;;;;;;;;;;;;;0.17;92.28;102631.56;107537;1254;61259;-86
2023/02/04 08:29:37;;;;;;;;;;;;;;;0.12;91.84;102635.22;107407;1254;61321;-87
2023/02/04 08:32:05;;;;;;;;;;;;;;;-0.01;91.18;102634.46;107342;1254;124579;-88
2023/02/04 08:34:33;;;;;;;;;;;;;;;-0.04;90.83;102628.12;107546;1254;61340;-89
2023/02/04 08:36:59;;;;;;;;;;;;;;;-0.07;90.20;102637.17;107210;1259;124811;-87
2023/02/04 08:39:31;;;;;;;;;;;;;;;-0.08;90.00;102636.71;107156;1254;61202;-89
2023/02/04 08:41:58;;;;;;;;;;;;;;;0.05;89.95;102647.52;107059;1254;74534;-86
2023/02/04 08:44:24;;;;;;;;;;;;;;;0.22;89.46;102653.96;107294;1257;124467;-86
2023/02/04 08:46:50;;;;;;;;;;;;;;;0.38;88.98;102645.48;107451;1256;61278;-87
2023/02/04 08:49:17;;;;;;;;;;;;;;;0.45;88.99;102646.15;107274;1262;125667;-84
2023/02/04 08:51:45;;;;;;;;;;;;;;;0.36;88.91;102658.39;107663;1257;61300;-86
2023/02/04 08:54:11;;;;;;;;;;;;;;;0.28;89.46;102657.58;107576;1257;72355;-86
2023/02/04 08:56:43;;;;;;;;;;;;;;;0.25;90.31;102659.54;107426;1254;124589;-87
2023/02/04 08:59:10;;;;;;;;;;;;;;;0.10;90.86;102663.34;107348;1257;72608;-86
2023/02/04 09:01:39;;;;;;;;;;;;;;;-0.01;90.51;102686.60;107012;1254;124819;-86
2023/02/04 09:04:06;;;;;;;;;;;;;;;-0.03;90.86;102673.23;107453;1253;61193;-86
2023/02/04 09:06:32;;;;;;;;;;;;;;;0.06;91.31;102674.36;107798;1256;74432;-84
2023/02/04 09:08:59;;;;;;;;;;;;;;;0.21;91.45;102680.48;107509;1254;60096;-85
2023/02/04 09:11:25;;;;;;;;;;;;;;;0.37;91.95;102679.38;107553;1255;61250;-84
2023/02/04 09:13:52;;;;;;;;;;;;;;;0.44;91.42;102695.98;107622;1259;125087;-85
2023/02/04 09:16:18;;;;;;;;;;;;;;;0.46;91.21;102695.48;107648;1259;60381;-84
2023/02/04 09:18:45;;;;;;;;;;;;;;;0.45;90.89;102701.09;107305;1258;124796;-86
2023/02/04 09:21:11;;;;;;;;;;;;;;;0.51;91.06;102700.07;108092;1259;61531;-86
2023/02/04 09:23:37;;;;;;;;;;;;;;;0.91;91.48;102700.79;107677;1254;61327;-86
2023/02/04 09:26:05;;;;;;;;;;;;;;;1.29;91.76;102698.17;107467;1257;124409;-87
2023/02/04 09:28:31;;;;;;;;;;;;;;;1.33;91.63;102700.93;107603;1254;61256;-86
2023/02/04 09:30:59;;;;;;;;;;;;;;;0.99;91.77;102705.33;107069;1256;124844;-85
2023/02/04 09:33:26;;;;;;;;;;;;;;;0.83;91.45;102707.13;107400;1254;67138;-86
2023/02/04 09:35:54;;;;;;;;;;;;;;;0.93;91.64;102709.32;107710;1254;73156;-84
2023/02/04 09:38:21;;;;;;;;;;;;;;;0.89;91.00;102712.54;107601;1254;124639;-85
2023/02/04 09:40:48;;;;;;;;;;;;;;;0.76;90.69;102710.61;108814;1254;60224;-80
2023/02/04 09:43:17;;;;;;;;;;;;;;;0.81;90.53;102712.66;107651;1254;125057;-80
2023/02/04 09:45:43;;;;;;;;;;;;;;;1.03;90.94;102711.23;107524;1257;64561;-80
2023/02/04 09:48:10;;;;;;;;;;;;;;;1.16;90.67;102717.70;107266;1255;159980;-80
2023/02/04 09:50:36;;;;;;;;;;;;;;;1.01;90.10;102723.99;107484;1254;125178;-80
2023/02/04 09:53:03;;;;;;;;;;;;;;;0.58;91.83;102730.94;107669;1254;61327;-80
2023/02/04 09:55:31;;;;;;;;;;;;;;;0.18;95.16;102742.27;107402;1257;124686;-80
2023/02/04 09:57:57;;;;;;;;;;;;;;;0.05;98.01;102733.20;107656;1260;67167;-81
2023/02/04 10:00:25;;;;;;;;;;;;;;;0.12;99.87;102740.02;108195;1255;72733;-81
2023/02/04 10:02:51;;;;;;;;;;;;;;;0.04;100.00;102750.37;107722;1256;125544;-81
2023/02/04 10:05:38;;;;;;;;;;;;;;;-0.10;100.00;102764.08;107673;1254;59586;-82
2023/02/04 10:08:04;;;;;;;;;;;;;;;-0.31;100.00;102768.80;107647;1254;126498;-81
2023/02/04 10:10:30;;;;;;;;;;;;;;;-0.47;100.00;102772.88;107590;1254;59653;-81
2023/02/04 10:12:58;;;;;;;;;;;;;;;-0.63;100.00;102785.44;107624;1254;124933;-80
2023/02/04 10:15:24;;;;;;;;;;;;;;;-0.70;100.00;102766.72;107499;1254;59291;-81
2023/02/04 10:17:56;;;;;;;;;;;;;;;-0.68;100.00;102766.42;107353;1260;59622;-80
2023/02/04 10:20:28;;;;;;;;;;;;;;;-0.66;100.00;102764.83;108381;1254;124892;-82
2023/02/04 10:22:57;;;;;;;;;;;;;;;-0.59;100.00;102762.52;107917;1254;65919;-81
2023/02/04 10:25:24;;;;;;;;;;;;;;;-0.57;100.00;102766.14;107670;1256;125526;-81
2023/02/04 10:27:50;;;;;;;;;;;;;;;-0.59;100.00;102770.02;107461;1256;61435;-81
2023/02/04 10:30:21;;;;;;;;;;;;;;;-0.55;100.00;102779.96;107488;1256;61254;-80
2023/02/04 10:32:47;;;;;;;;;;;;;;;-0.50;100.00;102781.43;108916;1254;125244;-81
2023/02/04 10:35:14;;;;;;;;;;;;;;;-0.48;100.00;102784.65;109121;1254;59988;-81
2023/02/04 10:37:40;;;;;;;;;;;;;;;-0.49;100.00;102783.52;108779;1254;124923;-81
2023/02/04 10:40:25;;;;;;;;;;;;;;;-0.55;100.00;102798.81;107191;1261;61381;-81
2023/02/04 10:42:52;;;;;;;;;;;;;;;-0.67;100.00;102826.61;107438;1257;124170;-81
2023/02/04 10:45:23;;;;;;;;;;;;;;;-0.75;100.00;102817.92;107520;1253;74669;-81
2023/02/04 10:47:50;;;;;;;;;;;;;;;-0.78;100.00;102814.73;107598;1254;65931;-81
2023/02/04 10:50:16;;;;;;;;;;;;;;;-0.78;100.00;102809.01;107649;1256;125015;-81
2023/02/04 10:52:46;;;;;;;;;;;;;;;-0.78;100.00;102817.31;107286;1254;61333;-86
2023/02/04 10:55:18;;;;;;;;;;;;;;;-0.81;100.00;102804.13;107181;1256;125070;-86
2023/02/04 10:57:45;;;;;;;;;;;;;;;-0.75;100.00;102809.81;107294;1254;73970;-82
2023/02/04 11:00:21;;;;;;;;;;;;;;;-0.71;100.00;102811.53;107431;1254;67541;-85
2023/02/04 11:03:01;;;;;;;;;;;;;;;-0.64;100.00;102799.27;106926;1254;124968;-87
2023/02/04 11:05:31;;;;;;;;;;;;;;;-0.62;100.00;102799.11;107229;1254;61381;-86
2023/02/04 11:07:59;;;;;;;;;;;;;;;-0.61;100.00;102802.70;106886;1256;125034;-87
2023/02/04 11:10:30;;;;;;;;;;;;;;;-0.57;100.00;102807.90;106958;1255;75830;-86
2023/02/04 11:12:56;;;;;;;;;;;;;;;-0.58;100.00;102818.36;106759;1261;125065;-86
2023/02/04 11:15:36;;;;;;;;;;;;;;;-0.64;100.00;102830.15;107173;1256;61308;-85
2023/02/04 11:18:34;;;;;;;;;;;;;;;-0.68;100.00;102836.40;106997;1257;61341;-86
2023/02/04 11:21:01;;;;;;;;;;;;;;;-0.69;100.00;102834.13;107060;1254;124586;-85
2023/02/04 11:23:28;;;;;;;;;;;;;;;-0.69;100.00;102833.27;107114;1254;61307;-86
2023/02/04 11:26:06;;;;;;;;;;;;;;;-0.67;100.00;102835.86;107255;1254;125517;-86
2023/02/04 11:28:40;;;;;;;;;;;;;;;-0.64;100.00;102840.13;107355;1254;71404;-87
2023/02/04 11:31:32;;;;;;;;;;;;;;;-0.59;100.00;102832.58;107423;1254;125450;-87
2023/02/04 11:34:09;;;;;;;;;;;;;;;-0.53;100.00;102843.71;106910;1263;61304;-86
2023/02/04 11:36:56;;;;;;;;;;;;;;;-0.50;100.00;102856.53;106595;1265;73423;-87
2023/02/04 11:39:54;;;;;;;;;;;;;;;-0.61;100.00;102835.10;106621;1263;67146;-87
2023/02/04 11:42:39;;;;;;;;;;;;;;;-0.65;100.00;102823.30;106792;1261;73367;-87
2023/02/04 11:45:12;;;;;;;;;;;;;;;-0.63;100.00;102841.08;106713;1265;125195;-81
2023/02/04 11:47:39;;;;;;;;;;;;;;;-0.66;100.00;102847.55;106795;1262;61192;-81
2023/02/04 11:50:17;;;;;;;;;;;;;;;-0.65;100.00;102846.61;106588;1262;125121;-87
2023/02/04 11:52:47;;;;;;;;;;;;;;;-0.56;100.00;102852.48;106837;1262;67120;-87
2023/02/04 11:55:15;;;;;;;;;;;;;;;-0.53;100.00;102856.09;107088;1262;125434;-87
2023/02/04 11:57:45;;;;;;;;;;;;;;;-0.52;100.00;102864.15;106960;1265;61283;-87
2023/02/04 12:00:13;;;;;;;;;;;;;;;-0.52;100.00;102857.39;106834;1267;61256;-88
2023/02/04 12:03:10;;;;;;;;;;;;;;;-0.55;100.00;102867.84;106770;1265;124825;-87
2023/02/04 12:05:40;;;;;;;;;;;;;;;-0.58;100.00;102853.73;106966;1262;66899;-87
2023/02/04 12:08:11;;;;;;;;;;;;;;;-0.59;100.00;102859.48;106761;1263;124891;-86
2023/02/04 12:11:10;;;;;;;;;;;;;;;-0.58;100.00;102871.48;106669;1254;61238;-86
2023/02/04 12:13:49;;;;;;;;;;;;;;;-0.52;100.00;102878.77;107222;1258;124908;-87
2023/02/04 12:16:16;;;;;;;;;;;;;;;-0.47;100.00;102896.44;107122;1254;75683;-87
2023/02/04 12:18:44;;;;;;;;;;;;;;;-0.48;100.00;102904.59;107246;1256;125067;-86
2023/02/04 12:21:13;;;;;;;;;;;;;;;-0.51;100.00;102902.67;107371;1254;72172;-86
2023/02/04 12:23:41;;;;;;;;;;;;;;;-0.58;100.00;102885.59;107336;1254;61317;-87
2023/02/04 12:26:07;;;;;;;;;;;;;;;-0.61;100.00;102887.89;107231;1254;124786;-87
2023/02/04 12:28:34;;;;;;;;;;;;;;;-0.64;100.00;102893.41;107343;1254;73871;-87
2023/02/04 12:31:05;;;;;;;;;;;;;;;-0.65;100.00;102905.89;107141;1255;125075;-87
2023/02/04 12:33:31;;;;;;;;;;;;;;;-0.66;100.00;102912.39;107389;1256;71191;-87
2023/02/04 12:35:58;;;;;;;;;;;;;;;-0.66;100.00;102905.08;107383;1256;61281;-87
2023/02/04 12:38:24;;;;;;;;;;;;;;;-0.67;100.00;102903.80;107206;1254;125490;-88